createdAt,value
2023-02-18T00:01:28.987Z,8.30
2023-02-18T00:05:18.187Z,10.40
2023-02-18T00:09:07.201Z,8.30
2023-02-18T00:12:56.690Z,11.00
2023-02-18T00:20:15.231Z,5.60
2023-02-18T00:24:04.579Z,6.60
2023-02-18T00:27:54.024Z,8.60
2023-02-18T00:31:46.239Z,7.90
2023-02-18T00:35:35.451Z,6.90
2023-02-18T00:39:30.761Z,9.70
2023-02-18T00:43:19.624Z,8.80
2023-02-18T00:47:09.042Z,6.80
2023-02-18T00:50:59.324Z,7.30
2023-02-18T00:54:48.445Z,9.90
2023-02-18T00:58:37.453Z,7.20
2023-02-18T01:02:26.420Z,7.30
2023-02-18T01:06:15.689Z,7.40
2023-02-18T01:10:05.068Z,5.40
2023-02-18T01:13:54.007Z,6.30
2023-02-18T01:17:43.129Z,5.20
2023-02-18T01:21:32.100Z,8.40
2023-02-18T01:25:21.073Z,6.60
2023-02-18T01:29:10.201Z,9.60
2023-02-18T01:32:59.242Z,5.30
2023-02-18T01:36:48.334Z,6.70
2023-02-18T01:40:37.866Z,6.20
2023-02-18T01:44:26.919Z,5.20
2023-02-18T01:48:16.003Z,4.50
2023-02-18T01:52:11.402Z,3.30
2023-02-18T02:07:49.820Z,4.30
2023-02-18T02:11:38.845Z,5.90
2023-02-18T02:15:49.042Z,4.80
2023-02-18T02:23:11.348Z,6.70
2023-02-18T02:27:01.727Z,7.20
2023-02-18T02:39:37.399Z,5.10
2023-02-18T02:43:35.574Z,4.30
2023-02-18T02:59:27.820Z,7.00
2023-02-18T03:03:28.637Z,4.90
2023-02-18T03:07:34.786Z,4.80
2023-02-18T03:19:45.988Z,6.20
2023-02-18T03:23:28.681Z,5.70
2023-02-18T03:27:17.667Z,7.50
2023-02-18T03:31:16.700Z,6.50
2023-02-18T03:34:50.507Z,7.70
2023-02-18T04:01:57.374Z,7.20
2023-02-18T04:05:45.108Z,6.80
2023-02-18T04:09:32.502Z,10.70
2023-02-18T04:13:20.193Z,7.70
2023-02-18T04:25:31.475Z,6.90
2023-02-18T04:29:18.930Z,7.20
2023-02-18T04:33:06.539Z,6.40
2023-02-18T04:36:55.729Z,7.50
2023-02-18T04:52:01.923Z,4.10
2023-02-18T04:55:33.433Z,3.80
2023-02-18T04:59:14.958Z,5.00
2023-02-18T05:03:04.158Z,6.30
2023-02-18T05:06:52.403Z,5.00
2023-02-18T05:26:10.726Z,4.40
2023-02-18T05:29:41.234Z,3.50
2023-02-18T05:33:18.137Z,4.90
2023-02-18T05:37:05.832Z,4.70
2023-02-18T05:40:36.919Z,3.40
2023-02-18T05:44:02.826Z,4.80
2023-02-18T06:06:15.525Z,6.20
2023-02-18T06:09:47.370Z,4.70
2023-02-18T06:13:03.683Z,6.40
2023-02-18T06:16:12.718Z,6.50
2023-02-18T06:19:41.773Z,5.10
2023-02-18T06:23:22.335Z,5.80
2023-02-18T06:27:02.486Z,5.50
2023-02-18T06:33:53.998Z,6.00
2023-02-18T06:37:43.008Z,10.30
2023-02-18T06:41:57.632Z,6.40
2023-02-18T06:44:55.366Z,8.50
2023-02-18T06:48:18.663Z,7.60
2023-02-18T06:51:40.552Z,5.30
2023-02-18T06:54:46.459Z,6.60
2023-02-18T06:58:25.946Z,5.10
2023-02-18T07:01:54.705Z,6.10
2023-02-18T07:04:46.888Z,8.00
2023-02-18T07:08:35.637Z,6.60
2023-02-18T07:12:05.734Z,7.10
2023-02-18T07:15:36.206Z,6.40
2023-02-18T07:19:17.191Z,4.80
2023-02-18T07:22:25.358Z,6.30
2023-02-18T07:25:48.018Z,5.40
2023-02-18T07:28:38.675Z,6.40
2023-02-18T07:31:19.223Z,5.60
2023-02-18T07:34:08.521Z,7.50
2023-02-18T07:37:13.219Z,8.30
2023-02-18T07:40:44.764Z,12.00
2023-02-18T07:44:22.592Z,11.20
2023-02-18T07:47:53.176Z,9.90
2023-02-18T07:51:09.715Z,10.20
2023-02-18T07:54:23.434Z,11.40
2023-02-18T07:57:46.168Z,12.50
2023-02-18T08:00:34.013Z,12.20
2023-02-18T08:03:08.087Z,13.20
2023-02-18T08:06:11.616Z,12.10
2023-02-18T08:08:54.158Z,15.00
2023-02-18T08:12:17.684Z,12.30
2023-02-18T08:15:57.492Z,12.50
2023-02-18T08:19:08.565Z,13.90
2023-02-18T08:22:50.518Z,13.70
2023-02-18T08:26:29.716Z,10.60
2023-02-18T08:29:40.959Z,8.90
2023-02-18T08:33:29.818Z,12.70
2023-02-18T08:36:46.078Z,12.70
2023-02-18T08:40:30.659Z,12.90
2023-02-18T08:44:02.802Z,12.50
2023-02-18T08:48:16.210Z,12.60
2023-02-18T08:50:55.863Z,10.80
2023-02-18T08:54:27.317Z,12.60
2023-02-18T08:57:56.218Z,13.00
2023-02-18T09:01:24.869Z,11.50
2023-02-18T09:05:14.260Z,13.30
2023-02-18T09:08:30.510Z,14.00
2023-02-18T09:45:23.859Z,14.10
2023-02-18T09:52:07.241Z,14.50
2023-02-18T09:55:15.723Z,7.80
2023-02-18T09:58:45.607Z,8.00
2023-02-18T10:02:21.802Z,11.10
2023-02-18T10:06:11.181Z,7.70
2023-02-18T10:09:25.932Z,11.80
2023-02-18T10:12:25.809Z,9.70
2023-02-18T10:15:59.116Z,12.20
2023-02-18T10:19:24.581Z,11.20
2023-02-18T10:22:37.257Z,10.80
2023-02-18T10:25:40.345Z,11.50
2023-02-18T10:29:29.890Z,11.60
2023-02-18T10:32:26.033Z,7.60
2023-02-18T10:35:38.384Z,8.10
2023-02-18T10:39:03.233Z,5.80
2023-02-18T10:42:41.415Z,11.00
2023-02-18T11:01:58.661Z,6.40
2023-02-18T11:05:46.926Z,7.70
2023-02-18T11:09:14.507Z,8.50
2023-02-18T11:12:58.313Z,10.10
2023-02-18T11:16:56.469Z,13.10
2023-02-18T11:20:44.178Z,11.70
2023-02-18T11:35:14.478Z,15.50
2023-02-18T11:39:16.430Z,19.50
2023-02-18T11:53:07.816Z,16.20
2023-02-18T11:56:53.901Z,17.30
2023-02-18T12:00:00.477Z,17.10
2023-02-18T12:03:35.250Z,14.50
2023-02-18T12:07:02.761Z,13.70
2023-02-18T12:13:12.205Z,12.80
2023-02-18T12:16:59.281Z,19.20
2023-02-18T12:20:27.549Z,18.40
2023-02-18T12:36:20.705Z,23.10
2023-02-18T12:40:21.579Z,22.70
2023-02-18T12:44:01.169Z,18.70
2023-02-18T12:47:18.414Z,23.00
2023-02-18T12:50:05.549Z,25.70
2023-02-18T12:53:04.782Z,32.80
2023-02-18T12:56:50.528Z,31.10
2023-02-18T13:00:31.907Z,30.40
2023-02-18T13:04:13.401Z,30.40
2023-02-18T13:07:59.486Z,34.10
2023-02-18T13:12:02.712Z,30.60
2023-02-18T13:15:31.622Z,28.70
2023-02-18T13:19:17.847Z,29.60
2023-02-18T13:26:45.198Z,27.60
2023-02-18T13:48:21.103Z,19.10
2023-02-18T13:51:35.096Z,16.70
2023-02-18T13:54:16.846Z,17.40
2023-02-18T13:57:45.414Z,17.30
2023-02-18T14:01:35.574Z,18.60
2023-02-18T14:08:28.221Z,15.30
2023-02-18T14:12:27.877Z,21.50
2023-02-18T14:16:20.359Z,21.10
2023-02-18T14:41:09.962Z,18.50
2023-02-18T14:44:45.558Z,21.10
2023-02-18T14:48:49.531Z,22.60
2023-02-18T15:07:24.507Z,19.30
2023-02-18T15:10:52.856Z,15.40
2023-02-18T15:14:27.751Z,18.80
2023-02-18T15:17:30.703Z,13.60
2023-02-18T15:41:33.980Z,9.80
2023-02-18T15:45:23.368Z,9.10
2023-02-18T15:49:00.099Z,11.50
2023-02-18T15:52:11.006Z,12.00
2023-02-18T15:55:28.743Z,11.90
2023-02-18T15:58:43.478Z,10.70
2023-02-18T16:02:28.337Z,11.60
2023-02-18T16:06:10.041Z,12.80
2023-02-18T16:09:22.779Z,8.60
2023-02-18T16:13:04.477Z,11.90
2023-02-18T16:25:05.031Z,14.70
2023-02-18T16:28:46.970Z,12.30
2023-02-18T16:32:26.516Z,12.30
2023-02-18T16:36:12.686Z,13.60
2023-02-18T16:39:05.207Z,11.30
2023-02-18T16:42:13.788Z,13.90
2023-02-18T16:44:52.105Z,12.40
2023-02-18T16:58:55.454Z,10.30
2023-02-18T17:02:04.066Z,10.80
2023-02-18T17:05:27.183Z,12.80
2023-02-18T17:08:49.410Z,13.70
2023-02-18T17:11:40.239Z,13.60
2023-02-18T17:14:24.172Z,10.90
2023-02-18T17:17:25.298Z,10.70
2023-02-18T17:21:03.696Z,12.90
2023-02-18T17:24:22.594Z,15.60
2023-02-18T17:27:00.530Z,12.80
2023-02-18T17:30:09.431Z,14.70
2023-02-18T17:33:02.886Z,15.30
2023-02-18T17:35:55.029Z,14.10
2023-02-18T17:39:25.440Z,11.30
2023-02-18T17:42:17.131Z,11.60
2023-02-18T17:45:25.020Z,12.60
2023-02-18T17:48:06.401Z,11.40
2023-02-18T17:51:22.506Z,11.00
2023-02-18T17:54:32.244Z,12.10
2023-02-18T17:57:34.361Z,15.60
2023-02-18T18:00:05.917Z,11.90
2023-02-18T18:03:17.276Z,11.40
2023-02-18T18:06:23.375Z,10.10
2023-02-18T18:09:12.925Z,10.70
2023-02-18T18:12:01.506Z,10.50
2023-02-18T18:14:52.848Z,11.20
2023-02-18T18:18:22.011Z,11.90
2023-02-18T18:21:48.890Z,11.40
2023-02-18T18:24:22.530Z,12.40
2023-02-18T18:27:52.399Z,11.00
2023-02-18T18:31:14.882Z,10.10
2023-02-18T18:37:26.378Z,12.00
2023-02-18T18:40:32.438Z,15.20
2023-02-18T18:43:57.858Z,13.00
2023-02-18T18:46:59.366Z,11.20
2023-02-18T18:50:48.682Z,14.20
2023-02-18T18:54:08.711Z,12.20
2023-02-18T18:57:58.336Z,10.30
2023-02-18T19:01:42.691Z,10.10
2023-02-18T19:05:21.522Z,10.10
2023-02-18T19:09:00.280Z,8.10
2023-02-18T19:12:41.830Z,10.00
2023-02-18T19:16:31.541Z,9.20
2023-02-18T19:20:11.385Z,20.50
2023-02-18T19:27:19.786Z,10.30
2023-02-18T19:30:49.159Z,12.20
2023-02-18T19:34:19.986Z,8.90
2023-02-18T19:40:58.913Z,5.90
2023-02-18T19:44:46.566Z,8.30
2023-02-18T19:48:35.912Z,15.10
2023-02-18T19:52:18.918Z,15.20
2023-02-18T19:56:09.025Z,15.30
2023-02-18T19:59:59.952Z,19.70
2023-02-18T20:03:25.273Z,17.60
2023-02-18T20:26:04.169Z,10.20
2023-02-18T20:29:51.922Z,15.70
2023-02-18T20:33:42.309Z,11.80
2023-02-18T20:37:31.580Z,11.50
2023-02-18T20:41:14.676Z,12.30
2023-02-18T20:44:57.801Z,13.30
2023-02-18T20:48:47.727Z,13.20
2023-02-18T20:55:58.429Z,14.00
2023-02-18T20:59:40.686Z,16.00
2023-02-18T21:06:57.271Z,13.20
2023-02-18T21:10:36.424Z,12.60
2023-02-18T21:47:43.060Z,7.50
2023-02-18T21:51:31.905Z,9.50
2023-02-18T21:55:15.017Z,5.60
2023-02-18T21:59:03.930Z,5.40
2023-02-18T22:06:31.174Z,6.60
2023-02-18T22:48:50.214Z,9.90
2023-02-18T22:52:39.163Z,6.60
2023-02-18T22:55:53.266Z,8.50
2023-02-18T22:59:15.999Z,3.40
2023-02-18T23:02:57.577Z,10.90
2023-02-18T23:05:46.174Z,11.60
2023-02-18T23:09:35.150Z,6.10
2023-02-18T23:13:04.765Z,4.40
2023-02-18T23:16:24.067Z,8.00
2023-02-18T23:18:55.319Z,7.40
2023-02-18T23:21:36.375Z,6.70
2023-02-18T23:28:55.890Z,5.10
2023-02-18T23:31:34.506Z,4.80
2023-02-18T23:34:43.724Z,6.90
2023-02-18T23:38:24.456Z,5.30
2023-02-18T23:41:16.431Z,3.70
2023-02-18T23:44:56.944Z,4.70
2023-02-18T23:48:45.842Z,4.40
2023-02-18T23:52:04.597Z,6.50
2023-02-18T23:54:54.531Z,6.00
